sensor_id;sensor_type;location;lat;lon;timestamp;P1;durP1;ratioP1;P2;durP2;ratioP2
5945;SDS011;2998;48.206;16.394;2023-04-03T00:00:33;3.80;;;3.60;;
5945;SDS011;2998;48.206;16.394;2023-04-03T00:07:27;3.07;;;2.87;;
5945;SDS011;2998;48.206;16.394;2023-04-03T00:09:57;4.53;;;3.60;;
5945;SDS011;2998;48.206;16.394;2023-04-03T00:16:46;3.40;;;3.20;;
5945;SDS011;2998;48.206;16.394;2023-04-03T00:19:15;3.00;;;2.90;;
5945;SDS011;2998;48.206;16.394;2023-04-03T00:26:06;4.43;;;4.07;;
5945;SDS011;2998;48.206;16.394;2023-04-03T00:28:35;3.20;;;3.10;;
5945;SDS011;2998;48.206;16.394;2023-04-03T00:31:04;7.23;;;3.93;;
5945;SDS011;2998;48.206;16.394;2023-04-03T00:33:34;3.80;;;3.50;;
5945;SDS011;2998;48.206;16.394;2023-04-03T00:36:07;8.23;;;4.13;;
5945;SDS011;2998;48.206;16.394;2023-04-03T00:38:37;3.80;;;3.50;;
5945;SDS011;2998;48.206;16.394;2023-04-03T00:41:07;6.23;;;3.10;;
5945;SDS011;2998;48.206;16.394;2023-04-03T00:47:49;12.03;;;4.43;;
5945;SDS011;2998;48.206;16.394;2023-04-03T00:50:20;4.40;;;4.00;;
5945;SDS011;2998;48.206;16.394;2023-04-03T00:57:01;6.53;;;4.60;;
5945;SDS011;2998;48.206;16.394;2023-04-03T00:59:32;4.30;;;4.00;;
5945;SDS011;2998;48.206;16.394;2023-04-03T01:02:03;4.83;;;4.53;;
5945;SDS011;2998;48.206;16.394;2023-04-03T01:04:33;3.57;;;3.37;;
5945;SDS011;2998;48.206;16.394;2023-04-03T01:07:05;6.60;;;4.97;;
5945;SDS011;2998;48.206;16.394;2023-04-03T01:09:36;3.63;;;3.43;;
5945;SDS011;2998;48.206;16.394;2023-04-03T01:12:13;3.83;;;3.53;;
5945;SDS011;2998;48.206;16.394;2023-04-03T01:14:44;4.17;;;3.87;;
5945;SDS011;2998;48.206;16.394;2023-04-03T01:17:29;3.50;;;3.27;;
5945;SDS011;2998;48.206;16.394;2023-04-03T01:28:42;4.53;;;4.17;;
5945;SDS011;2998;48.206;16.394;2023-04-03T01:31:13;4.17;;;3.87;;
5945;SDS011;2998;48.206;16.394;2023-04-03T01:37:58;3.87;;;3.67;;
5945;SDS011;2998;48.206;16.394;2023-04-03T01:40:28;3.67;;;3.37;;
5945;SDS011;2998;48.206;16.394;2023-04-03T01:47:16;4.20;;;3.90;;
5945;SDS011;2998;48.206;16.394;2023-04-03T01:49:46;3.77;;;3.50;;
5945;SDS011;2998;48.206;16.394;2023-04-03T01:52:15;4.83;;;4.20;;
5945;SDS011;2998;48.206;16.394;2023-04-03T01:59:04;5.00;;;4.70;;
5945;SDS011;2998;48.206;16.394;2023-04-03T02:01:33;3.93;;;3.63;;
5945;SDS011;2998;48.206;16.394;2023-04-03T02:08:21;3.80;;;3.60;;
5945;SDS011;2998;48.206;16.394;2023-04-03T02:10:50;4.77;;;4.10;;
5945;SDS011;2998;48.206;16.394;2023-04-03T02:13:20;4.87;;;4.37;;
5945;SDS011;2998;48.206;16.394;2023-04-03T02:15:50;3.83;;;3.53;;
5945;SDS011;2998;48.206;16.394;2023-04-03T02:18:19;4.47;;;4.07;;
5945;SDS011;2998;48.206;16.394;2023-04-03T02:20:48;5.20;;;4.67;;
5945;SDS011;2998;48.206;16.394;2023-04-03T02:23:17;3.57;;;3.37;;
5945;SDS011;2998;48.206;16.394;2023-04-03T02:25:48;4.10;;;3.80;;
5945;SDS011;2998;48.206;16.394;2023-04-03T02:28:18;3.90;;;3.70;;
5945;SDS011;2998;48.206;16.394;2023-04-03T02:30:47;4.13;;;3.93;;
5945;SDS011;2998;48.206;16.394;2023-04-03T02:33:18;4.33;;;4.13;;
5945;SDS011;2998;48.206;16.394;2023-04-03T02:40:00;3.70;;;3.50;;
5945;SDS011;2998;48.206;16.394;2023-04-03T02:42:29;8.80;;;4.13;;
5945;SDS011;2998;48.206;16.394;2023-04-03T02:49:06;4.73;;;3.50;;
5945;SDS011;2998;48.206;16.394;2023-04-03T02:51:35;4.60;;;4.07;;
5945;SDS011;2998;48.206;16.394;2023-04-03T02:54:04;10.00;;;4.30;;
5945;SDS011;2998;48.206;16.394;2023-04-03T02:57:29;3.87;;;3.57;;
5945;SDS011;2998;48.206;16.394;2023-04-03T03:04:05;3.87;;;3.57;;
5945;SDS011;2998;48.206;16.394;2023-04-03T03:06:35;4.40;;;4.00;;
5945;SDS011;2998;48.206;16.394;2023-04-03T03:09:04;4.00;;;3.80;;
5945;SDS011;2998;48.206;16.394;2023-04-03T03:11:34;3.93;;;3.63;;
5945;SDS011;2998;48.206;16.394;2023-04-03T03:14:04;8.27;;;4.10;;
5945;SDS011;2998;48.206;16.394;2023-04-03T03:16:33;3.90;;;3.60;;
5945;SDS011;2998;48.206;16.394;2023-04-03T03:19:02;4.30;;;3.80;;
5945;SDS011;2998;48.206;16.394;2023-04-03T03:21:33;6.30;;;4.43;;
5945;SDS011;2998;48.206;16.394;2023-04-03T03:24:02;4.47;;;4.13;;
5945;SDS011;2998;48.206;16.394;2023-04-03T03:26:32;3.70;;;3.50;;
5945;SDS011;2998;48.206;16.394;2023-04-03T03:29:01;5.30;;;4.17;;
5945;SDS011;2998;48.206;16.394;2023-04-03T03:31:32;3.87;;;3.67;;
5945;SDS011;2998;48.206;16.394;2023-04-03T03:34:01;3.90;;;3.63;;
5945;SDS011;2998;48.206;16.394;2023-04-03T03:40:51;3.90;;;3.70;;
5945;SDS011;2998;48.206;16.394;2023-04-03T03:43:21;4.03;;;3.80;;
5945;SDS011;2998;48.206;16.394;2023-04-03T03:50:12;4.00;;;3.70;;
5945;SDS011;2998;48.206;16.394;2023-04-03T03:52:41;4.00;;;3.70;;
5945;SDS011;2998;48.206;16.394;2023-04-03T03:59:32;6.47;;;4.40;;
5945;SDS011;2998;48.206;16.394;2023-04-03T04:02:01;5.27;;;4.43;;
5945;SDS011;2998;48.206;16.394;2023-04-03T04:04:31;7.70;;;3.87;;
5945;SDS011;2998;48.206;16.394;2023-04-03T04:07:00;6.37;;;4.10;;
5945;SDS011;2998;48.206;16.394;2023-04-03T04:09:29;5.57;;;3.93;;
5945;SDS011;2998;48.206;16.394;2023-04-03T04:16:19;3.53;;;3.33;;
5945;SDS011;2998;48.206;16.394;2023-04-03T04:18:48;3.33;;;3.10;;
5945;SDS011;2998;48.206;16.394;2023-04-03T04:25:43;5.33;;;3.53;;
5945;SDS011;2998;48.206;16.394;2023-04-03T04:28:13;3.83;;;3.43;;
5945;SDS011;2998;48.206;16.394;2023-04-03T04:34:56;6.17;;;3.00;;
5945;SDS011;2998;48.206;16.394;2023-04-03T04:37:28;4.43;;;3.27;;
5945;SDS011;2998;48.206;16.394;2023-04-03T04:39:58;9.13;;;4.53;;
5945;SDS011;2998;48.206;16.394;2023-04-03T04:46:40;5.23;;;3.20;;
5945;SDS011;2998;48.206;16.394;2023-04-03T04:49:09;6.30;;;3.50;;
5945;SDS011;2998;48.206;16.394;2023-04-03T04:55:59;11.83;;;3.40;;
5945;SDS011;2998;48.206;16.394;2023-04-03T04:58:31;3.53;;;3.30;;
5945;SDS011;2998;48.206;16.394;2023-04-03T05:01:01;3.20;;;3.00;;
5945;SDS011;2998;48.206;16.394;2023-04-03T05:04:09;3.63;;;3.33;;
5945;SDS011;2998;48.206;16.394;2023-04-03T05:10:51;3.23;;;2.77;;
5945;SDS011;2998;48.206;16.394;2023-04-03T05:13:23;3.40;;;3.10;;
5945;SDS011;2998;48.206;16.394;2023-04-03T05:15:53;4.40;;;3.60;;
5945;SDS011;2998;48.206;16.394;2023-04-03T05:18:22;5.80;;;3.40;;
5945;SDS011;2998;48.206;16.394;2023-04-03T05:20:51;3.00;;;2.70;;
5945;SDS011;2998;48.206;16.394;2023-04-03T05:27:39;3.50;;;3.20;;
5945;SDS011;2998;48.206;16.394;2023-04-03T05:30:12;3.50;;;3.20;;
5945;SDS011;2998;48.206;16.394;2023-04-03T05:37:07;2.77;;;2.57;;
5945;SDS011;2998;48.206;16.394;2023-04-03T05:39:37;11.50;;;4.83;;
5945;SDS011;2998;48.206;16.394;2023-04-03T05:46:22;7.63;;;4.20;;
5945;SDS011;2998;48.206;16.394;2023-04-03T05:53:19;3.80;;;3.10;;
5945;SDS011;2998;48.206;16.394;2023-04-03T05:55:50;12.90;;;4.70;;
5945;SDS011;2998;48.206;16.394;2023-04-03T06:02:34;6.40;;;3.47;;
5945;SDS011;2998;48.206;16.394;2023-04-03T06:05:04;5.90;;;4.03;;
5945;SDS011;2998;48.206;16.394;2023-04-03T06:11:54;3.70;;;3.40;;
5945;SDS011;2998;48.206;16.394;2023-04-03T06:18:39;3.73;;;3.43;;
5945;SDS011;2998;48.206;16.394;2023-04-03T06:21:08;3.43;;;3.23;;
5945;SDS011;2998;48.206;16.394;2023-04-03T06:27:49;15.93;;;4.80;;
5945;SDS011;2998;48.206;16.394;2023-04-03T06:30:19;4.10;;;3.90;;
5945;SDS011;2998;48.206;16.394;2023-04-03T06:32:48;3.70;;;3.40;;
5945;SDS011;2998;48.206;16.394;2023-04-03T06:35:19;4.27;;;3.37;;
5945;SDS011;2998;48.206;16.394;2023-04-03T06:37:50;4.37;;;4.07;;
5945;SDS011;2998;48.206;16.394;2023-04-03T06:40:21;7.60;;;3.83;;
5945;SDS011;2998;48.206;16.394;2023-04-03T06:42:52;8.83;;;4.40;;
5945;SDS011;2998;48.206;16.394;2023-04-03T06:45:22;4.20;;;3.60;;
5945;SDS011;2998;48.206;16.394;2023-04-03T06:47:52;3.47;;;3.20;;
5945;SDS011;2998;48.206;16.394;2023-04-03T06:50:24;6.47;;;4.03;;
5945;SDS011;2998;48.206;16.394;2023-04-03T06:52:54;33.17;;;6.00;;
5945;SDS011;2998;48.206;16.394;2023-04-03T06:55:23;4.03;;;3.40;;
5945;SDS011;2998;48.206;16.394;2023-04-03T06:57:53;3.20;;;3.00;;
5945;SDS011;2998;48.206;16.394;2023-04-03T07:00:22;3.30;;;3.10;;
5945;SDS011;2998;48.206;16.394;2023-04-03T07:07:06;2.97;;;2.77;;
5945;SDS011;2998;48.206;16.394;2023-04-03T07:13:54;2.73;;;2.50;;
5945;SDS011;2998;48.206;16.394;2023-04-03T07:16:23;3.23;;;3.03;;
5945;SDS011;2998;48.206;16.394;2023-04-03T07:23:14;3.30;;;2.87;;
5945;SDS011;2998;48.206;16.394;2023-04-03T07:34:10;2.47;;;2.27;;
5945;SDS011;2998;48.206;16.394;2023-04-03T07:36:39;2.63;;;2.50;;
5945;SDS011;2998;48.206;16.394;2023-04-03T07:39:09;2.23;;;2.13;;
5945;SDS011;2998;48.206;16.394;2023-04-03T07:41:39;2.67;;;2.50;;
5945;SDS011;2998;48.206;16.394;2023-04-03T07:44:08;4.90;;;2.57;;
5945;SDS011;2998;48.206;16.394;2023-04-03T07:46:37;2.93;;;2.30;;
5945;SDS011;2998;48.206;16.394;2023-04-03T07:49:08;2.57;;;2.37;;
5945;SDS011;2998;48.206;16.394;2023-04-03T07:55:56;7.20;;;2.13;;
5945;SDS011;2998;48.206;16.394;2023-04-03T07:58:26;3.00;;;2.10;;
5945;SDS011;2998;48.206;16.394;2023-04-03T08:05:14;2.60;;;1.90;;
5945;SDS011;2998;48.206;16.394;2023-04-03T08:07:43;2.07;;;1.87;;
5945;SDS011;2998;48.206;16.394;2023-04-03T08:14:33;2.53;;;2.00;;
5945;SDS011;2998;48.206;16.394;2023-04-03T08:17:02;1.37;;;1.27;;
5945;SDS011;2998;48.206;16.394;2023-04-03T08:19:32;2.90;;;2.00;;
5945;SDS011;2998;48.206;16.394;2023-04-03T08:22:02;1.90;;;1.80;;
5945;SDS011;2998;48.206;16.394;2023-04-03T08:24:32;7.27;;;1.70;;
5945;SDS011;2998;48.206;16.394;2023-04-03T08:27:03;1.70;;;1.60;;
5945;SDS011;2998;48.206;16.394;2023-04-03T08:29:36;2.03;;;1.67;;
5945;SDS011;2998;48.206;16.394;2023-04-03T08:32:07;2.20;;;2.10;;
5945;SDS011;2998;48.206;16.394;2023-04-03T08:34:36;1.90;;;1.80;;
5945;SDS011;2998;48.206;16.394;2023-04-03T08:37:06;3.43;;;1.57;;
5945;SDS011;2998;48.206;16.394;2023-04-03T08:39:36;2.73;;;1.77;;
5945;SDS011;2998;48.206;16.394;2023-04-03T08:42:05;1.90;;;1.80;;
5945;SDS011;2998;48.206;16.394;2023-04-03T08:44:47;1.50;;;1.40;;
5945;SDS011;2998;48.206;16.394;2023-04-03T08:47:19;5.20;;;1.83;;
5945;SDS011;2998;48.206;16.394;2023-04-03T08:49:53;2.50;;;2.30;;
5945;SDS011;2998;48.206;16.394;2023-04-03T08:52:26;3.40;;;1.63;;
5945;SDS011;2998;48.206;16.394;2023-04-03T08:55:00;4.50;;;2.20;;
5945;SDS011;2998;48.206;16.394;2023-04-03T08:57:30;6.07;;;2.10;;
5945;SDS011;2998;48.206;16.394;2023-04-03T09:00:05;2.40;;;2.30;;
5945;SDS011;2998;48.206;16.394;2023-04-03T09:06:55;11.67;;;3.40;;
5945;SDS011;2998;48.206;16.394;2023-04-03T09:09:30;9.47;;;2.10;;
5945;SDS011;2998;48.206;16.394;2023-04-03T09:16:25;3.27;;;1.40;;
5945;SDS011;2998;48.206;16.394;2023-04-03T09:19:02;3.33;;;1.80;;
5945;SDS011;2998;48.206;16.394;2023-04-03T09:26:02;2.30;;;2.07;;
5945;SDS011;2998;48.206;16.394;2023-04-03T09:28:34;2.47;;;2.37;;
5945;SDS011;2998;48.206;16.394;2023-04-03T09:31:20;7.30;;;3.27;;
5945;SDS011;2998;48.206;16.394;2023-04-03T09:33:54;1.73;;;1.47;;
5945;SDS011;2998;48.206;16.394;2023-04-03T09:40:38;7.73;;;3.33;;
5945;SDS011;2998;48.206;16.394;2023-04-03T09:47:27;4.67;;;3.00;;
5945;SDS011;2998;48.206;16.394;2023-04-03T09:57:09;3.27;;;2.53;;
5945;SDS011;2998;48.206;16.394;2023-04-03T09:59:42;2.03;;;1.93;;
5945;SDS011;2998;48.206;16.394;2023-04-03T10:06:23;6.07;;;3.07;;
5945;SDS011;2998;48.206;16.394;2023-04-03T10:13:12;5.27;;;4.13;;
5945;SDS011;2998;48.206;16.394;2023-04-03T10:15:49;7.43;;;4.03;;
5945;SDS011;2998;48.206;16.394;2023-04-03T10:22:49;3.70;;;3.40;;
5945;SDS011;2998;48.206;16.394;2023-04-03T10:25:26;3.60;;;3.40;;
5945;SDS011;2998;48.206;16.394;2023-04-03T10:27:59;6.50;;;3.30;;
5945;SDS011;2998;48.206;16.394;2023-04-03T10:32:17;3.80;;;3.60;;
5945;SDS011;2998;48.206;16.394;2023-04-03T10:39:02;3.77;;;3.37;;
5945;SDS011;2998;48.206;16.394;2023-04-03T10:41:43;3.67;;;3.37;;
5945;SDS011;2998;48.206;16.394;2023-04-03T10:48:43;3.37;;;2.53;;
5945;SDS011;2998;48.206;16.394;2023-04-03T10:51:22;2.53;;;2.43;;
5945;SDS011;2998;48.206;16.394;2023-04-03T10:58:14;3.13;;;3.03;;
5945;SDS011;2998;48.206;16.394;2023-04-03T11:05:00;3.40;;;3.20;;
5945;SDS011;2998;48.206;16.394;2023-04-03T11:07:33;9.40;;;4.40;;
5945;SDS011;2998;48.206;16.394;2023-04-03T11:14:32;3.50;;;3.20;;
5945;SDS011;2998;48.206;16.394;2023-04-03T11:17:10;3.43;;;3.23;;
5945;SDS011;2998;48.206;16.394;2023-04-03T11:23:55;3.30;;;3.10;;
5945;SDS011;2998;48.206;16.394;2023-04-03T11:26:28;3.23;;;3.00;;
5945;SDS011;2998;48.206;16.394;2023-04-03T11:28:59;7.03;;;3.67;;
5945;SDS011;2998;48.206;16.394;2023-04-03T11:31:37;9.10;;;3.47;;
5945;SDS011;2998;48.206;16.394;2023-04-03T11:34:16;25.03;;;9.87;;
5945;SDS011;2998;48.206;16.394;2023-04-03T11:36:52;12.33;;;3.50;;
5945;SDS011;2998;48.206;16.394;2023-04-03T11:39:24;3.83;;;2.93;;
5945;SDS011;2998;48.206;16.394;2023-04-03T11:41:56;3.77;;;3.00;;
5945;SDS011;2998;48.206;16.394;2023-04-03T11:44:45;4.23;;;3.20;;
5945;SDS011;2998;48.206;16.394;2023-04-03T11:47:43;4.67;;;2.57;;
5945;SDS011;2998;48.206;16.394;2023-04-03T11:54:42;3.53;;;2.77;;
5945;SDS011;2998;48.206;16.394;2023-04-03T12:15:18;2.73;;;2.53;;
5945;SDS011;2998;48.206;16.394;2023-04-03T12:22:18;3.97;;;2.40;;
5945;SDS011;2998;48.206;16.394;2023-04-03T12:24:49;6.87;;;4.90;;
5945;SDS011;2998;48.206;16.394;2023-04-03T12:35:54;8.47;;;4.30;;
5945;SDS011;2998;48.206;16.394;2023-04-03T12:41:27;2.60;;;2.43;;
5945;SDS011;2998;48.206;16.394;2023-04-03T13:03:01;3.30;;;2.50;;
5945;SDS011;2998;48.206;16.394;2023-04-03T13:05:32;2.10;;;2.00;;
5945;SDS011;2998;48.206;16.394;2023-04-03T13:12:22;6.90;;;3.97;;
5945;SDS011;2998;48.206;16.394;2023-04-03T13:14:52;3.43;;;2.30;;
5945;SDS011;2998;48.206;16.394;2023-04-03T13:21:41;9.40;;;3.60;;
5945;SDS011;2998;48.206;16.394;2023-04-03T13:28:24;6.23;;;2.13;;
5945;SDS011;2998;48.206;16.394;2023-04-03T13:30:56;2.63;;;2.43;;
5945;SDS011;2998;48.206;16.394;2023-04-03T13:37:53;2.80;;;2.60;;
5945;SDS011;2998;48.206;16.394;2023-04-03T13:40:23;2.63;;;2.20;;
5945;SDS011;2998;48.206;16.394;2023-04-03T13:47:13;7.60;;;2.40;;
5945;SDS011;2998;48.206;16.394;2023-04-03T13:54:10;2.63;;;2.43;;
5945;SDS011;2998;48.206;16.394;2023-04-03T13:56:46;2.07;;;1.97;;
5945;SDS011;2998;48.206;16.394;2023-04-03T14:03:42;2.60;;;1.90;;
5945;SDS011;2998;48.206;16.394;2023-04-03T14:06:13;2.60;;;1.80;;
5945;SDS011;2998;48.206;16.394;2023-04-03T14:13:01;2.70;;;2.37;;
5945;SDS011;2998;48.206;16.394;2023-04-03T14:19:45;1.60;;;1.50;;
5945;SDS011;2998;48.206;16.394;2023-04-03T14:22:15;1.97;;;1.87;;
5945;SDS011;2998;48.206;16.394;2023-04-03T14:29:10;3.97;;;2.00;;
5945;SDS011;2998;48.206;16.394;2023-04-03T14:31:40;2.70;;;1.93;;
5945;SDS011;2998;48.206;16.394;2023-04-03T14:34:10;2.13;;;1.80;;
5945;SDS011;2998;48.206;16.394;2023-04-03T14:36:43;2.03;;;1.83;;
5945;SDS011;2998;48.206;16.394;2023-04-03T14:39:15;1.40;;;1.30;;
5945;SDS011;2998;48.206;16.394;2023-04-03T14:41:46;2.40;;;1.67;;
5945;SDS011;2998;48.206;16.394;2023-04-03T14:44:15;1.50;;;1.40;;
5945;SDS011;2998;48.206;16.394;2023-04-03T14:46:44;2.90;;;1.50;;
5945;SDS011;2998;48.206;16.394;2023-04-03T14:49:24;3.10;;;2.47;;
5945;SDS011;2998;48.206;16.394;2023-04-03T14:52:00;2.43;;;1.87;;
5945;SDS011;2998;48.206;16.394;2023-04-03T14:54:29;3.87;;;3.23;;
5945;SDS011;2998;48.206;16.394;2023-04-03T14:56:59;1.77;;;1.67;;
5945;SDS011;2998;48.206;16.394;2023-04-03T14:59:29;1.70;;;1.60;;
5945;SDS011;2998;48.206;16.394;2023-04-03T15:06:20;2.60;;;1.83;;
5945;SDS011;2998;48.206;16.394;2023-04-03T15:08:50;3.17;;;2.97;;
5945;SDS011;2998;48.206;16.394;2023-04-03T15:15:38;2.10;;;2.00;;
5945;SDS011;2998;48.206;16.394;2023-04-03T15:18:09;3.53;;;2.00;;
5945;SDS011;2998;48.206;16.394;2023-04-03T15:25:00;1.90;;;1.50;;
5945;SDS011;2998;48.206;16.394;2023-04-03T15:36:00;5.87;;;2.00;;
5945;SDS011;2998;48.206;16.394;2023-04-03T15:38:37;3.83;;;3.57;;
5945;SDS011;2998;48.206;16.394;2023-04-03T15:45:27;3.50;;;3.20;;
5945;SDS011;2998;48.206;16.394;2023-04-03T15:52:10;5.17;;;1.90;;
5945;SDS011;2998;48.206;16.394;2023-04-03T15:54:39;1.83;;;1.70;;
5945;SDS011;2998;48.206;16.394;2023-04-03T16:01:35;1.97;;;1.57;;
5945;SDS011;2998;48.206;16.394;2023-04-03T16:04:05;2.37;;;1.90;;
5945;SDS011;2998;48.206;16.394;2023-04-03T16:06:36;3.27;;;2.97;;
5945;SDS011;2998;48.206;16.394;2023-04-03T16:09:06;5.17;;;1.70;;
5945;SDS011;2998;48.206;16.394;2023-04-03T16:11:35;2.40;;;2.30;;
5945;SDS011;2998;48.206;16.394;2023-04-03T16:14:06;2.40;;;1.83;;
5945;SDS011;2998;48.206;16.394;2023-04-03T16:16:37;5.20;;;2.70;;
5945;SDS011;2998;48.206;16.394;2023-04-03T16:19:06;5.23;;;2.43;;
5945;SDS011;2998;48.206;16.394;2023-04-03T16:21:39;4.10;;;2.07;;
5945;SDS011;2998;48.206;16.394;2023-04-03T16:24:08;2.00;;;1.80;;
5945;SDS011;2998;48.206;16.394;2023-04-03T16:26:37;4.30;;;1.67;;
5945;SDS011;2998;48.206;16.394;2023-04-03T16:29:07;2.97;;;1.87;;
5945;SDS011;2998;48.206;16.394;2023-04-03T16:31:38;1.60;;;1.50;;
5945;SDS011;2998;48.206;16.394;2023-04-03T16:34:07;1.93;;;1.50;;
5945;SDS011;2998;48.206;16.394;2023-04-03T16:36:37;2.10;;;2.00;;
5945;SDS011;2998;48.206;16.394;2023-04-03T16:43:31;2.30;;;1.33;;
5945;SDS011;2998;48.206;16.394;2023-04-03T16:46:00;2.20;;;2.10;;
5945;SDS011;2998;48.206;16.394;2023-04-03T16:52:43;2.03;;;1.87;;
5945;SDS011;2998;48.206;16.394;2023-04-03T16:55:14;4.07;;;2.10;;
5945;SDS011;2998;48.206;16.394;2023-04-03T16:57:43;3.90;;;2.43;;
5945;SDS011;2998;48.206;16.394;2023-04-03T17:00:13;1.67;;;1.57;;
5945;SDS011;2998;48.206;16.394;2023-04-03T17:02:42;1.93;;;1.83;;
5945;SDS011;2998;48.206;16.394;2023-04-03T17:05:12;4.83;;;2.00;;
5945;SDS011;2998;48.206;16.394;2023-04-03T17:07:41;1.70;;;1.53;;
5945;SDS011;2998;48.206;16.394;2023-04-03T17:10:16;1.63;;;1.43;;
5945;SDS011;2998;48.206;16.394;2023-04-03T17:12:46;4.00;;;1.50;;
5945;SDS011;2998;48.206;16.394;2023-04-03T17:15:15;3.17;;;1.60;;
5945;SDS011;2998;48.206;16.394;2023-04-03T17:17:45;3.43;;;1.80;;
5945;SDS011;2998;48.206;16.394;2023-04-03T17:24:34;2.20;;;2.00;;
5945;SDS011;2998;48.206;16.394;2023-04-03T17:27:05;3.23;;;1.53;;
5945;SDS011;2998;48.206;16.394;2023-04-03T17:38:31;2.93;;;1.53;;
5945;SDS011;2998;48.206;16.394;2023-04-03T17:45:20;1.80;;;1.70;;
5945;SDS011;2998;48.206;16.394;2023-04-03T17:47:50;3.03;;;1.70;;
5945;SDS011;2998;48.206;16.394;2023-04-03T17:54:38;2.87;;;1.77;;
5945;SDS011;2998;48.206;16.394;2023-04-03T17:57:08;2.23;;;1.70;;
5945;SDS011;2998;48.206;16.394;2023-04-03T18:03:59;1.80;;;1.53;;
5945;SDS011;2998;48.206;16.394;2023-04-03T18:06:29;2.23;;;1.53;;
5945;SDS011;2998;48.206;16.394;2023-04-03T18:09:00;2.33;;;1.90;;
5945;SDS011;2998;48.206;16.394;2023-04-03T18:11:32;1.70;;;1.60;;
5945;SDS011;2998;48.206;16.394;2023-04-03T18:14:01;1.60;;;1.50;;
5945;SDS011;2998;48.206;16.394;2023-04-03T18:20:45;2.57;;;1.67;;
5945;SDS011;2998;48.206;16.394;2023-04-03T18:23:15;2.60;;;1.93;;
5945;SDS011;2998;48.206;16.394;2023-04-03T18:30:05;2.60;;;2.10;;
5945;SDS011;2998;48.206;16.394;2023-04-03T18:32:39;2.70;;;2.00;;
5945;SDS011;2998;48.206;16.394;2023-04-03T18:35:09;4.27;;;1.80;;
5945;SDS011;2998;48.206;16.394;2023-04-03T18:37:41;4.80;;;1.80;;
5945;SDS011;2998;48.206;16.394;2023-04-03T18:40:10;2.00;;;1.70;;
5945;SDS011;2998;48.206;16.394;2023-04-03T18:42:41;2.33;;;2.17;;
5945;SDS011;2998;48.206;16.394;2023-04-03T18:45:10;1.73;;;1.63;;
5945;SDS011;2998;48.206;16.394;2023-04-03T18:47:41;4.10;;;1.33;;
5945;SDS011;2998;48.206;16.394;2023-04-03T18:50:10;2.27;;;1.77;;
5945;SDS011;2998;48.206;16.394;2023-04-03T18:57:00;2.23;;;2.13;;
5945;SDS011;2998;48.206;16.394;2023-04-03T18:59:29;1.50;;;1.40;;
5945;SDS011;2998;48.206;16.394;2023-04-03T19:06:17;2.70;;;1.83;;
5945;SDS011;2998;48.206;16.394;2023-04-03T19:08:47;2.23;;;1.50;;
5945;SDS011;2998;48.206;16.394;2023-04-03T19:15:36;2.27;;;1.40;;
5945;SDS011;2998;48.206;16.394;2023-04-03T19:22:18;3.60;;;2.07;;
5945;SDS011;2998;48.206;16.394;2023-04-03T19:24:47;1.67;;;1.57;;
5945;SDS011;2998;48.206;16.394;2023-04-03T19:31:43;3.53;;;2.33;;
5945;SDS011;2998;48.206;16.394;2023-04-03T19:34:13;2.90;;;2.57;;
5945;SDS011;2998;48.206;16.394;2023-04-03T19:36:45;2.43;;;2.10;;
5945;SDS011;2998;48.206;16.394;2023-04-03T19:39:47;2.00;;;1.73;;
5945;SDS011;2998;48.206;16.394;2023-04-03T19:46:22;3.37;;;1.80;;
5945;SDS011;2998;48.206;16.394;2023-04-03T19:53:18;2.87;;;2.13;;
5945;SDS011;2998;48.206;16.394;2023-04-03T19:55:48;2.10;;;2.00;;
5945;SDS011;2998;48.206;16.394;2023-04-03T20:02:30;2.37;;;2.00;;
5945;SDS011;2998;48.206;16.394;2023-04-03T20:04:59;3.30;;;2.00;;
5945;SDS011;2998;48.206;16.394;2023-04-03T20:07:28;1.73;;;1.63;;
5945;SDS011;2998;48.206;16.394;2023-04-03T20:09:59;3.63;;;2.80;;
5945;SDS011;2998;48.206;16.394;2023-04-03T20:12:28;1.73;;;1.63;;
5945;SDS011;2998;48.206;16.394;2023-04-03T20:14:57;2.30;;;2.07;;
5945;SDS011;2998;48.206;16.394;2023-04-03T20:17:33;2.00;;;1.90;;
5945;SDS011;2998;48.206;16.394;2023-04-03T20:20:04;3.87;;;2.00;;
5945;SDS011;2998;48.206;16.394;2023-04-03T20:22:35;2.80;;;1.90;;
5945;SDS011;2998;48.206;16.394;2023-04-03T20:25:07;2.13;;;2.03;;
5945;SDS011;2998;48.206;16.394;2023-04-03T20:27:43;2.70;;;2.50;;
5945;SDS011;2998;48.206;16.394;2023-04-03T20:30:12;4.60;;;2.10;;
5945;SDS011;2998;48.206;16.394;2023-04-03T20:32:42;3.67;;;2.03;;
5945;SDS011;2998;48.206;16.394;2023-04-03T20:35:11;2.80;;;1.70;;
5945;SDS011;2998;48.206;16.394;2023-04-03T20:37:41;3.10;;;2.07;;
5945;SDS011;2998;48.206;16.394;2023-04-03T20:44:31;1.90;;;1.80;;
5945;SDS011;2998;48.206;16.394;2023-04-03T20:47:01;2.80;;;1.87;;
5945;SDS011;2998;48.206;16.394;2023-04-03T20:53:56;4.73;;;2.40;;
5945;SDS011;2998;48.206;16.394;2023-04-03T20:56:28;12.50;;;2.50;;
5945;SDS011;2998;48.206;16.394;2023-04-03T21:03:19;2.10;;;2.00;;
5945;SDS011;2998;48.206;16.394;2023-04-03T21:05:49;2.10;;;1.87;;
5945;SDS011;2998;48.206;16.394;2023-04-03T21:20:02;4.07;;;2.40;;
5945;SDS011;2998;48.206;16.394;2023-04-03T21:22:36;2.37;;;2.17;;
5945;SDS011;2998;48.206;16.394;2023-04-03T21:29:21;1.87;;;1.77;;
5945;SDS011;2998;48.206;16.394;2023-04-03T21:31:52;5.20;;;2.93;;
5945;SDS011;2998;48.206;16.394;2023-04-03T21:34:23;4.80;;;2.50;;
5945;SDS011;2998;48.206;16.394;2023-04-03T21:36:55;2.30;;;2.20;;
5945;SDS011;2998;48.206;16.394;2023-04-03T21:39:25;2.10;;;1.83;;
5945;SDS011;2998;48.206;16.394;2023-04-03T21:41:54;2.40;;;2.20;;
5945;SDS011;2998;48.206;16.394;2023-04-03T21:44:23;1.77;;;1.67;;
5945;SDS011;2998;48.206;16.394;2023-04-03T21:51:06;2.83;;;2.03;;
5945;SDS011;2998;48.206;16.394;2023-04-03T21:53:38;5.83;;;2.00;;
5945;SDS011;2998;48.206;16.394;2023-04-03T22:00:28;1.67;;;1.57;;
5945;SDS011;2998;48.206;16.394;2023-04-03T22:02:57;1.53;;;1.43;;
5945;SDS011;2998;48.206;16.394;2023-04-03T22:10:02;2.23;;;2.03;;
5945;SDS011;2998;48.206;16.394;2023-04-03T22:16:50;2.47;;;2.10;;
5945;SDS011;2998;48.206;16.394;2023-04-03T22:19:19;1.73;;;1.63;;
5945;SDS011;2998;48.206;16.394;2023-04-03T22:26:15;2.20;;;1.93;;
5945;SDS011;2998;48.206;16.394;2023-04-03T22:28:44;1.87;;;1.77;;
5945;SDS011;2998;48.206;16.394;2023-04-03T22:35:32;2.33;;;2.23;;
5945;SDS011;2998;48.206;16.394;2023-04-03T22:42:28;2.30;;;1.63;;
5945;SDS011;2998;48.206;16.394;2023-04-03T22:44:57;2.53;;;2.33;;
5945;SDS011;2998;48.206;16.394;2023-04-03T22:51:52;2.23;;;2.10;;
5945;SDS011;2998;48.206;16.394;2023-04-03T22:54:22;2.20;;;2.00;;
5945;SDS011;2998;48.206;16.394;2023-04-03T22:56:51;2.77;;;2.53;;
5945;SDS011;2998;48.206;16.394;2023-04-03T22:59:21;9.60;;;2.70;;
5945;SDS011;2998;48.206;16.394;2023-04-03T23:01:51;2.30;;;2.10;;
5945;SDS011;2998;48.206;16.394;2023-04-03T23:04:20;4.23;;;2.53;;
5945;SDS011;2998;48.206;16.394;2023-04-03T23:06:50;8.43;;;3.70;;
5945;SDS011;2998;48.206;16.394;2023-04-03T23:09:20;3.03;;;2.23;;
5945;SDS011;2998;48.206;16.394;2023-04-03T23:11:49;2.77;;;2.57;;
5945;SDS011;2998;48.206;16.394;2023-04-03T23:14:18;2.20;;;2.10;;
5945;SDS011;2998;48.206;16.394;2023-04-03T23:16:50;3.43;;;2.90;;
5945;SDS011;2998;48.206;16.394;2023-04-03T23:19:19;2.90;;;2.43;;
5945;SDS011;2998;48.206;16.394;2023-04-03T23:21:48;2.67;;;2.47;;
5945;SDS011;2998;48.206;16.394;2023-04-03T23:24:17;4.33;;;2.50;;
5945;SDS011;2998;48.206;16.394;2023-04-03T23:26:46;4.83;;;2.23;;
5945;SDS011;2998;48.206;16.394;2023-04-03T23:33:29;2.30;;;2.20;;
5945;SDS011;2998;48.206;16.394;2023-04-03T23:35:59;3.97;;;2.33;;
5945;SDS011;2998;48.206;16.394;2023-04-03T23:42:45;2.57;;;2.37;;
5945;SDS011;2998;48.206;16.394;2023-04-03T23:45:14;2.23;;;2.03;;
5945;SDS011;2998;48.206;16.394;2023-04-03T23:47:44;3.03;;;2.70;;
5945;SDS011;2998;48.206;16.394;2023-04-03T23:50:15;7.20;;;2.80;;
5945;SDS011;2998;48.206;16.394;2023-04-03T23:52:44;2.33;;;2.10;;
5945;SDS011;2998;48.206;16.394;2023-04-03T23:55:13;2.87;;;2.60;;
5945;SDS011;2998;48.206;16.394;2023-04-03T23:57:45;2.53;;;2.23;;
